createdAt,value
2023-02-11T00:00:31.384Z,9.80
2023-02-11T00:04:13.480Z,9.80
2023-02-11T00:07:55.464Z,9.80
2023-02-11T00:11:37.537Z,9.80
2023-02-11T00:15:21.257Z,9.80
2023-02-11T00:19:06.385Z,9.70
2023-02-11T00:22:48.351Z,9.70
2023-02-11T00:26:34.128Z,9.70
2023-02-11T00:30:16.635Z,9.70
2023-02-11T00:33:58.603Z,9.70
2023-02-11T00:37:40.660Z,9.70
2023-02-11T00:41:23.304Z,9.70
2023-02-11T00:45:05.459Z,9.70
2023-02-11T00:48:47.462Z,9.70
2023-02-11T00:52:29.960Z,9.70
2023-02-11T00:56:12.185Z,9.60
2023-02-11T00:59:54.176Z,9.60
2023-02-11T01:03:36.597Z,9.60
2023-02-11T01:07:18.573Z,9.60
2023-02-11T01:11:02.833Z,9.60
2023-02-11T01:14:44.868Z,9.60
2023-02-11T01:18:27.377Z,9.60
2023-02-11T01:22:09.435Z,9.60
2023-02-11T01:25:52.074Z,9.60
2023-02-11T01:29:34.319Z,9.60
2023-02-11T01:33:16.489Z,9.60
2023-02-11T01:36:59.725Z,9.60
2023-02-11T01:40:46.552Z,9.60
2023-02-11T01:44:33.494Z,9.70
2023-02-11T01:48:38.897Z,9.70
2023-02-11T01:52:34.721Z,9.70
2023-02-11T01:56:36.472Z,9.70
2023-02-11T02:00:30.988Z,9.70
2023-02-11T02:04:16.179Z,9.70
2023-02-11T02:08:13.919Z,9.70
2023-02-11T02:11:56.040Z,9.70
2023-02-11T02:15:41.321Z,9.70
2023-02-11T02:20:07.870Z,9.70
2023-02-11T02:23:52.334Z,9.70
2023-02-11T02:28:05.992Z,9.70
2023-02-11T02:32:25.678Z,9.70
2023-02-11T02:36:24.030Z,9.70
2023-02-11T02:40:13.031Z,9.70
2023-02-11T02:43:55.324Z,9.70
2023-02-11T02:47:37.491Z,9.70
2023-02-11T02:51:19.400Z,9.70
2023-02-11T02:55:20.214Z,9.70
2023-02-11T02:59:03.712Z,9.70
2023-02-11T03:03:05.488Z,9.70
2023-02-11T03:06:59.294Z,9.60
2023-02-11T03:10:48.329Z,9.60
2023-02-11T03:14:32.304Z,9.60
2023-02-11T03:18:18.890Z,9.60
2023-02-11T03:22:05.549Z,9.60
2023-02-11T03:26:01.778Z,9.60
2023-02-11T03:29:54.410Z,9.60
2023-02-11T03:33:59.474Z,9.60
2023-02-11T03:37:47.296Z,9.60
2023-02-11T03:41:31.595Z,9.60
2023-02-11T03:45:18.427Z,9.60
2023-02-11T03:49:05.187Z,9.60
2023-02-11T03:52:50.016Z,9.60
2023-02-11T03:56:38.621Z,9.60
2023-02-11T04:00:20.700Z,9.60
2023-02-11T04:04:02.695Z,9.50
2023-02-11T04:07:44.734Z,9.60
2023-02-11T04:11:26.823Z,9.50
2023-02-11T04:15:09.537Z,9.60
2023-02-11T04:18:51.668Z,9.60
2023-02-11T04:22:33.681Z,9.60
2023-02-11T04:26:15.666Z,9.60
2023-02-11T04:29:57.625Z,9.50
2023-02-11T04:33:39.603Z,9.50
2023-02-11T04:37:21.696Z,9.60
2023-02-11T04:41:03.676Z,9.50
2023-02-11T04:44:45.684Z,9.60
2023-02-11T04:48:27.715Z,9.60
2023-02-11T04:52:09.976Z,9.60
2023-02-11T04:55:52.337Z,9.60
2023-02-11T04:59:34.456Z,9.50
2023-02-11T05:03:16.790Z,9.50
2023-02-11T05:06:58.856Z,9.50
2023-02-11T05:10:40.830Z,9.40
2023-02-11T05:14:22.872Z,9.30
2023-02-11T05:18:04.995Z,9.30
2023-02-11T05:22:01.417Z,9.20
2023-02-11T05:25:43.910Z,9.20
2023-02-11T05:29:25.929Z,9.20
2023-02-11T05:33:07.952Z,9.10
2023-02-11T05:36:49.958Z,9.10
2023-02-11T05:40:34.533Z,9.10
2023-02-11T05:44:16.549Z,9.10
2023-02-11T05:47:58.732Z,9.10
2023-02-11T05:51:41.190Z,9.00
2023-02-11T05:55:23.198Z,9.00
2023-02-11T05:59:05.192Z,9.00
2023-02-11T06:02:47.174Z,9.00
2023-02-11T06:06:29.248Z,9.00
2023-02-11T06:10:11.774Z,9.00
2023-02-11T06:13:53.761Z,9.00
2023-02-11T06:17:36.720Z,8.90
2023-02-11T06:21:18.800Z,8.90
2023-02-11T06:25:02.206Z,8.90
2023-02-11T06:28:44.627Z,8.90
2023-02-11T06:32:45.690Z,8.90
2023-02-11T06:36:28.082Z,8.90
2023-02-11T06:40:11.731Z,8.90
2023-02-11T06:43:54.083Z,8.80
2023-02-11T06:47:36.334Z,8.80
2023-02-11T06:51:19.380Z,8.80
2023-02-11T06:55:01.364Z,8.80
2023-02-11T06:58:43.688Z,8.80
2023-02-11T07:02:25.726Z,8.80
2023-02-11T07:06:11.328Z,8.80
2023-02-11T07:09:53.259Z,8.80
2023-02-11T07:13:35.265Z,8.80
2023-02-11T07:17:17.263Z,8.80
2023-02-11T07:20:59.286Z,8.80
2023-02-11T07:24:41.376Z,8.80
2023-02-11T07:28:23.386Z,8.80
2023-02-11T07:32:06.246Z,8.80
2023-02-11T07:35:49.076Z,8.80
2023-02-11T07:39:31.317Z,8.80
2023-02-11T07:43:13.313Z,8.80
2023-02-11T07:46:55.403Z,8.80
2023-02-11T07:50:37.444Z,8.80
2023-02-11T07:54:19.448Z,8.80
2023-02-11T07:58:01.539Z,8.80
2023-02-11T08:01:43.577Z,8.80
2023-02-11T08:05:26.980Z,8.80
2023-02-11T08:09:13.387Z,8.80
2023-02-11T08:12:55.550Z,8.90
2023-02-11T08:16:39.317Z,8.90
2023-02-11T08:20:21.401Z,8.90
2023-02-11T08:24:03.886Z,8.90
2023-02-11T08:27:45.929Z,9.00
2023-02-11T08:31:37.020Z,9.00
2023-02-11T08:35:19.068Z,9.00
2023-02-11T08:39:18.120Z,9.10
2023-02-11T08:43:01.057Z,9.10
2023-02-11T08:46:43.058Z,9.10
2023-02-11T08:50:27.146Z,9.10
2023-02-11T08:54:10.116Z,9.10
2023-02-11T08:57:52.225Z,9.10
2023-02-11T09:01:34.337Z,9.20
2023-02-11T09:05:16.507Z,9.20
2023-02-11T09:08:58.767Z,9.30
2023-02-11T09:12:40.832Z,9.30
2023-02-11T09:16:26.324Z,9.30
2023-02-11T09:20:10.774Z,9.40
2023-02-11T09:23:53.039Z,9.40
2023-02-11T09:27:35.027Z,9.40
2023-02-11T09:31:19.772Z,9.50
2023-02-11T09:35:02.143Z,9.50
2023-02-11T09:38:45.015Z,9.60
2023-02-11T09:43:04.030Z,9.70
2023-02-11T09:46:52.628Z,9.70
2023-02-11T09:50:53.019Z,9.80
2023-02-11T09:54:54.297Z,9.80
2023-02-11T09:58:39.057Z,10.00
2023-02-11T10:02:29.771Z,10.10
2023-02-11T10:06:23.031Z,10.10
2023-02-11T10:10:13.471Z,10.20
2023-02-11T10:14:12.776Z,10.30
2023-02-11T10:17:54.806Z,10.60
2023-02-11T10:22:01.347Z,10.70
2023-02-11T10:25:45.719Z,10.90
2023-02-11T10:29:35.611Z,10.90
2023-02-11T10:33:26.573Z,10.90
2023-02-11T10:37:13.186Z,10.90
2023-02-11T10:40:55.223Z,10.90
2023-02-11T10:44:40.259Z,10.90
2023-02-11T10:48:49.493Z,10.90
2023-02-11T10:52:31.863Z,11.00
2023-02-11T10:56:45.905Z,11.00
2023-02-11T11:00:37.308Z,11.00
2023-02-11T11:04:33.776Z,11.00
2023-02-11T11:08:17.193Z,11.10
2023-02-11T11:11:59.205Z,11.10
2023-02-11T11:15:41.312Z,11.20
2023-02-11T11:19:25.395Z,11.20
2023-02-11T11:23:19.861Z,11.30
2023-02-11T11:27:04.339Z,11.30
2023-02-11T11:30:46.482Z,11.30
2023-02-11T11:34:41.988Z,11.30
2023-02-11T11:38:24.684Z,11.30
2023-02-11T11:42:27.702Z,11.30
2023-02-11T11:46:12.347Z,11.40
2023-02-11T11:50:21.168Z,11.40
2023-02-11T11:54:13.569Z,11.50
2023-02-11T11:57:55.576Z,11.60
2023-02-11T12:02:08.329Z,11.70
2023-02-11T12:06:16.962Z,11.70
2023-02-11T12:10:16.877Z,11.90
2023-02-11T12:14:24.906Z,11.90
2023-02-11T12:18:09.686Z,12.00
2023-02-11T12:21:51.606Z,12.10
2023-02-11T12:25:36.484Z,12.20
2023-02-11T12:29:42.725Z,12.20
2023-02-11T12:33:47.537Z,12.30
2023-02-11T12:37:47.560Z,12.30
2023-02-11T12:41:54.292Z,12.40
2023-02-11T12:45:42.211Z,12.50
2023-02-11T12:49:39.022Z,12.50
2023-02-11T12:53:32.964Z,12.40
2023-02-11T12:57:22.759Z,12.40
2023-02-11T13:01:35.666Z,12.30
2023-02-11T13:05:38.327Z,12.30
2023-02-11T13:09:28.793Z,12.30
2023-02-11T13:13:26.709Z,12.20
2023-02-11T13:17:20.992Z,12.10
2023-02-11T13:21:38.687Z,12.00
2023-02-11T13:25:51.540Z,11.90
2023-02-11T13:29:58.626Z,11.80
2023-02-11T13:33:44.528Z,11.80
2023-02-11T13:37:36.463Z,11.70
2023-02-11T13:41:35.100Z,11.70
2023-02-11T13:45:23.893Z,11.80
2023-02-11T13:49:23.540Z,11.80
2023-02-11T13:53:10.080Z,11.80
2023-02-11T13:57:20.062Z,11.90
2023-02-11T14:01:02.503Z,12.00
2023-02-11T14:05:23.646Z,12.00
2023-02-11T14:09:14.556Z,12.10
2023-02-11T14:13:17.898Z,12.10
2023-02-11T14:16:59.945Z,12.20
2023-02-11T14:20:44.644Z,12.30
2023-02-11T14:24:31.171Z,12.40
2023-02-11T14:28:24.726Z,12.50
2023-02-11T14:32:16.726Z,12.60
2023-02-11T14:36:11.319Z,12.60
2023-02-11T14:40:20.912Z,12.60
2023-02-11T14:44:08.308Z,12.60
2023-02-11T14:48:09.055Z,12.50
2023-02-11T14:51:52.741Z,12.40
2023-02-11T14:55:41.982Z,12.30
2023-02-11T14:59:24.008Z,12.30
2023-02-11T15:03:06.077Z,12.30
2023-02-11T15:06:51.914Z,12.30
2023-02-11T15:10:43.046Z,12.30
2023-02-11T15:14:28.623Z,12.30
2023-02-11T15:18:22.626Z,12.30
2023-02-11T15:22:08.281Z,12.20
2023-02-11T15:25:55.736Z,12.20
2023-02-11T15:29:40.388Z,12.20
2023-02-11T15:33:25.553Z,12.10
2023-02-11T15:37:07.965Z,12.10
2023-02-11T15:41:02.192Z,12.10
2023-02-11T15:44:44.478Z,12.10
2023-02-11T15:48:46.759Z,12.10
2023-02-11T15:52:29.168Z,12.10
2023-02-11T15:56:19.704Z,12.10
2023-02-11T16:00:05.745Z,12.00
2023-02-11T16:03:50.936Z,12.00
2023-02-11T16:07:47.411Z,11.90
2023-02-11T16:11:35.110Z,11.90
2023-02-11T16:15:30.666Z,11.80
2023-02-11T16:19:17.886Z,11.70
2023-02-11T16:23:07.844Z,11.70
2023-02-11T16:26:53.696Z,11.70
2023-02-11T16:30:38.316Z,11.60
2023-02-11T16:34:25.795Z,11.60
2023-02-11T16:38:07.750Z,11.50
2023-02-11T16:41:51.403Z,11.50
2023-02-11T16:45:38.736Z,11.50
2023-02-11T16:49:22.921Z,11.40
2023-02-11T16:53:06.494Z,11.40
2023-02-11T16:56:48.960Z,11.30
2023-02-11T17:00:30.976Z,11.30
2023-02-11T17:04:24.683Z,11.20
2023-02-11T17:08:06.883Z,11.20
2023-02-11T17:11:49.588Z,11.10
2023-02-11T17:15:32.234Z,11.00
2023-02-11T17:19:16.837Z,11.00
2023-02-11T17:22:58.837Z,10.90
2023-02-11T17:26:42.192Z,10.90
2023-02-11T17:30:25.002Z,10.80
2023-02-11T17:34:07.397Z,10.80
2023-02-11T17:37:49.566Z,10.80
2023-02-11T17:41:31.547Z,10.70
2023-02-11T17:45:13.919Z,10.70
2023-02-11T17:48:58.771Z,10.60
2023-02-11T17:52:40.754Z,10.60
2023-02-11T17:56:22.739Z,10.50
2023-02-11T18:00:06.172Z,10.50
2023-02-11T18:03:48.176Z,10.50
2023-02-11T18:07:30.347Z,10.50
2023-02-11T18:11:15.160Z,10.50
2023-02-11T18:14:58.280Z,10.40
2023-02-11T18:18:40.349Z,10.40
2023-02-11T18:22:22.652Z,10.40
2023-02-11T18:26:08.186Z,10.40
2023-02-11T18:29:50.326Z,10.30
2023-02-11T18:33:32.585Z,10.30
2023-02-11T18:37:16.372Z,10.30
2023-02-11T18:40:58.679Z,10.30
2023-02-11T18:44:40.661Z,10.20
2023-02-11T18:48:22.671Z,10.20
2023-02-11T18:52:04.780Z,10.20
2023-02-11T18:55:47.564Z,10.20
2023-02-11T18:59:29.928Z,10.10
2023-02-11T19:03:11.969Z,10.10
2023-02-11T19:06:54.032Z,10.10
2023-02-11T19:10:39.239Z,10.10
2023-02-11T19:14:25.468Z,10.10
2023-02-11T19:18:07.561Z,10.00
2023-02-11T19:21:49.693Z,10.10
2023-02-11T19:25:31.689Z,10.00
2023-02-11T19:29:14.416Z,10.00
2023-02-11T19:32:57.865Z,10.00
2023-02-11T19:36:40.183Z,10.00
2023-02-11T19:40:22.202Z,9.90
2023-02-11T19:44:05.518Z,9.90
2023-02-11T19:47:47.535Z,9.90
2023-02-11T19:51:30.564Z,9.90
2023-02-11T19:55:12.543Z,9.90
2023-02-11T19:58:55.190Z,9.80
2023-02-11T20:02:38.894Z,9.80
2023-02-11T20:06:24.307Z,9.80
2023-02-11T20:10:07.130Z,9.80
2023-02-11T20:13:52.007Z,9.80
2023-02-11T20:17:33.978Z,9.70
2023-02-11T20:21:19.663Z,9.70
2023-02-11T20:25:01.686Z,9.70
2023-02-11T20:28:44.108Z,9.70
2023-02-11T20:32:26.094Z,9.70
2023-02-11T20:36:15.424Z,9.60
2023-02-11T20:39:59.096Z,9.70
2023-02-11T20:43:42.525Z,9.60
2023-02-11T20:47:24.539Z,9.60
2023-02-11T20:51:09.022Z,9.60
2023-02-11T20:54:51.017Z,9.50
2023-02-11T20:58:33.610Z,9.50
2023-02-11T21:02:15.800Z,9.50
2023-02-11T21:06:00.958Z,9.50
2023-02-11T21:09:42.935Z,9.50
2023-02-11T21:13:25.063Z,9.50
2023-02-11T21:17:07.678Z,9.50
2023-02-11T21:20:50.087Z,9.40
2023-02-11T21:24:32.154Z,9.40
2023-02-11T21:28:14.231Z,9.40
2023-02-11T21:31:56.501Z,9.40
2023-02-11T21:35:38.717Z,9.40
2023-02-11T21:39:20.919Z,9.40
2023-02-11T21:43:02.869Z,9.30
2023-02-11T21:46:45.264Z,9.30
2023-02-11T21:50:27.261Z,9.30
2023-02-11T21:54:11.457Z,9.30
2023-02-11T21:57:53.417Z,9.30
2023-02-11T22:01:36.031Z,9.20
2023-02-11T22:05:18.148Z,9.20
2023-02-11T22:09:04.071Z,9.20
2023-02-11T22:12:46.304Z,9.20
2023-02-11T22:16:29.082Z,9.20
2023-02-11T22:20:11.839Z,9.20
2023-02-11T22:23:55.277Z,9.20
2023-02-11T22:27:37.285Z,9.20
2023-02-11T22:31:26.064Z,9.20
2023-02-11T22:35:08.221Z,9.20
2023-02-11T22:38:50.713Z,9.20
2023-02-11T22:42:32.717Z,9.20
2023-02-11T22:46:18.099Z,9.20
2023-02-11T22:50:00.131Z,9.10
2023-02-11T22:53:43.788Z,9.20
2023-02-11T22:57:25.724Z,9.10
2023-02-11T23:01:08.022Z,9.10
2023-02-11T23:04:50.082Z,9.10
2023-02-11T23:08:33.780Z,9.10
2023-02-11T23:12:15.717Z,9.10
2023-02-11T23:15:57.915Z,9.10
2023-02-11T23:19:39.961Z,9.10
2023-02-11T23:23:21.953Z,9.10
2023-02-11T23:27:03.938Z,9.00
2023-02-11T23:30:45.915Z,9.00
2023-02-11T23:34:27.944Z,9.00
2023-02-11T23:38:09.940Z,9.00
2023-02-11T23:41:58.930Z,9.00
2023-02-11T23:45:40.998Z,9.00
2023-02-11T23:49:23.022Z,9.00
2023-02-11T23:53:05.085Z,8.90
2023-02-11T23:56:47.144Z,8.90
